Time;durP1;ratioP1;P1;durP2;ratioP2;P2;SDS_P1;SDS_P2;PMS_P1;PMS_P2;Temp;Humidity;BMP_temperature;BMP_pressure;BME280_temperature;BME280_humidity;BME280_pressure;Samples;Min_cycle;Max_cycle;Signal;HPM_P1;HPM_P2
2023/01/07 00:00:10;;;;;;;5.95;3.60;;;;;;;8.37;100.00;101516.78;10439641;28;20374;-82
2023/01/07 00:05:10;;;;;;;5.72;3.75;;;;;;;8.43;100.00;101518.91;10445327;28;20136;-82
2023/01/07 00:10:13;;;;;;;5.88;3.05;;;;;;;8.55;100.00;101514.56;10431596;28;20033;-82
2023/01/07 00:15:15;;;;;;;6.38;3.20;;;;;;;8.72;100.00;101497.38;10442735;28;20063;-83
2023/01/07 00:20:15;;;;;;;5.57;3.45;;;;;;;8.63;100.00;101484.66;10433276;28;20068;-81
2023/01/07 00:25:16;;;;;;;6.32;3.72;;;;;;;8.62;100.00;101497.56;10436124;28;20041;-82
2023/01/07 00:30:16;;;;;;;16.63;3.92;;;;;;;8.62;100.00;101489.75;10478271;28;20064;-81
2023/01/07 00:35:22;;;;;;;5.53;3.28;;;;;;;8.65;100.00;101483.03;10461830;28;20124;-80
2023/01/07 00:40:23;;;;;;;6.30;3.90;;;;;;;8.77;100.00;101468.97;10446390;28;20033;-82
2023/01/07 00:45:24;;;;;;;5.05;3.50;;;;;;;8.77;100.00;101461.16;10445241;28;20447;-82
2023/01/07 00:50:30;;;;;;;5.45;2.95;;;;;;;8.81;100.00;101461.44;10422942;28;20045;-81
2023/01/07 00:55:31;;;;;;;6.18;3.30;;;;;;;8.88;100.00;101448.78;10461615;28;20127;-83
2023/01/07 01:00:31;;;;;;;5.03;3.15;;;;;;;9.07;100.00;101445.63;10421752;28;20039;-82
2023/01/07 01:05:32;;;;;;;7.88;3.78;;;;;;;9.09;100.00;101447.53;10476249;28;20053;-83
2023/01/07 01:10:32;;;;;;;5.68;3.17;;;;;;;9.11;100.00;101434.56;10425867;28;20068;-83
2023/01/07 01:15:33;;;;;;;4.45;2.78;;;;;;;9.23;100.00;101434.44;10442588;28;20188;-82
2023/01/07 01:20:34;;;;;;;5.10;3.28;;;;;;;9.23;100.00;101431.81;10445594;28;20068;-83
2023/01/07 01:25:34;;;;;;;6.05;3.67;;;;;;;9.29;100.00;101423.47;10423798;28;20910;-82
2023/01/07 01:30:35;;;;;;;4.30;2.78;;;;;;;9.18;100.00;101422.78;10447842;28;20401;-82
2023/01/07 01:35:39;;;;;;;4.32;2.30;;;;;;;9.26;100.00;101421.56;10439739;28;20121;-81
2023/01/07 01:40:39;;;;;;;6.25;3.40;;;;;;;9.25;100.00;101423.28;10447222;28;20393;-82
2023/01/07 01:45:40;;;;;;;10.70;2.85;;;;;;;9.32;100.00;101418.44;10443000;28;20178;-82
2023/01/07 01:50:42;;;;;;;6.00;3.13;;;;;;;9.32;100.00;101423.66;10478092;28;20358;-82
2023/01/07 01:55:46;;;;;;;6.15;2.78;;;;;;;9.33;100.00;101407.19;10458929;28;20469;-82
2023/01/07 02:00:46;;;;;;;3.83;2.47;;;;;;;9.32;100.00;101406.25;10444511;28;20048;-82
2023/01/07 02:05:47;;;;;;;5.53;2.83;;;;;;;9.36;100.00;101416.09;10421616;28;20059;-82
2023/01/07 02:10:54;;;;;;;7.68;3.35;;;;;;;9.32;100.00;101408.00;10434780;28;20043;-82
2023/01/07 02:16:09;;;;;;;4.50;2.60;;;;;;;9.35;100.00;101398.63;10409779;28;20179;-83
2023/01/07 02:21:28;;;;;;;3.22;2.15;;;;;;;9.31;100.00;101406.19;10466717;28;20505;-82
2023/01/07 02:26:54;;;;;;;6.30;3.08;;;;;;;9.38;100.00;101403.13;10452700;28;20068;-82
2023/01/07 02:32:19;;;;;;;4.10;2.28;;;;;;;9.30;100.00;101397.44;10462751;28;20050;-81
2023/01/07 02:37:42;;;;;;;4.78;2.35;;;;;;;9.25;100.00;101391.94;10466465;28;20048;-82
2023/01/07 02:42:53;;;;;;;5.50;2.88;;;;;;;9.02;100.00;101382.66;10464467;28;20044;-81
2023/01/07 02:47:59;;;;;;;3.35;2.10;;;;;;;9.07;100.00;101381.25;10446676;28;20048;-83
2023/01/07 02:53:00;;;;;;;4.18;2.08;;;;;;;9.17;100.00;101379.19;10429731;28;20045;-83
2023/01/07 02:58:03;;;;;;;8.18;3.33;;;;;;;9.15;100.00;101378.19;10473491;28;20041;-83
2023/01/07 03:03:11;;;;;;;4.55;2.28;;;;;;;8.94;100.00;101371.75;10464082;28;20513;-82
2023/01/07 03:08:26;;;;;;;4.68;2.83;;;;;;;8.93;100.00;101369.97;10437205;28;20087;-83
2023/01/07 03:13:54;;;;;;;9.80;2.97;;;;;;;9.01;100.00;101361.69;10426545;28;20052;-83
2023/01/07 03:18:58;;;;;;;6.50;2.65;;;;;;;9.16;100.00;101357.44;10441136;28;20512;-83
2023/01/07 03:23:58;;;;;;;7.53;2.45;;;;;;;9.19;100.00;101352.38;10409027;28;20090;-83
2023/01/07 03:29:00;;;;;;;4.20;2.15;;;;;;;9.16;100.00;101346.06;10443752;28;20033;-83
2023/01/07 03:34:06;;;;;;;4.70;2.67;;;;;;;9.24;100.00;101350.03;10460585;28;20048;-82
2023/01/07 03:39:09;;;;;;;4.70;2.67;;;;;;;9.28;100.00;101344.19;10438437;28;20049;-82
2023/01/07 03:44:10;;;;;;;6.13;2.75;;;;;;;9.29;100.00;101347.72;10415300;28;20029;-82
2023/01/07 03:49:10;;;;;;;6.35;2.47;;;;;;;9.27;100.00;101349.34;10466008;28;20520;-82
2023/01/07 03:54:11;;;;;;;4.35;2.20;;;;;;;9.30;100.00;101339.97;10474446;28;20510;-82
2023/01/07 03:59:11;;;;;;;5.88;2.67;;;;;;;9.17;100.00;101337.41;10466098;28;20037;-82
2023/01/07 04:04:12;;;;;;;9.07;2.80;;;;;;;9.10;100.00;101330.94;10442189;28;20116;-82
2023/01/07 04:09:14;;;;;;;14.20;3.83;;;;;;;8.99;100.00;101332.88;10456972;28;20396;-83
2023/01/07 04:14:14;;;;;;;7.55;3.00;;;;;;;8.94;100.00;101321.25;10444182;28;20052;-83
2023/01/07 04:19:15;;;;;;;8.85;2.92;;;;;;;8.91;100.00;101319.38;10451944;28;20528;-83
2023/01/07 04:24:15;;;;;;;4.80;2.75;;;;;;;8.83;100.00;101315.38;10478103;28;20091;-83
2023/01/07 04:29:16;;;;;;;5.93;2.75;;;;;;;8.88;100.00;101311.34;10463797;28;20041;-81
2023/01/07 04:34:16;;;;;;;6.53;3.38;;;;;;;8.86;100.00;101292.06;10455793;28;20052;-85
2023/01/07 04:39:17;;;;;;;8.07;2.35;;;;;;;9.00;100.00;101284.19;10471654;28;20042;-81
2023/01/07 04:44:17;;;;;;;8.68;5.32;;;;;;;8.93;100.00;101278.59;10447853;28;20045;-80
2023/01/07 04:49:18;;;;;;;5.72;2.30;;;;;;;9.05;100.00;101270.59;10432759;28;20052;-81
2023/01/07 04:54:19;;;;;;;10.97;3.57;;;;;;;9.06;100.00;101263.66;10453183;28;20033;-81
2023/01/07 04:59:23;;;;;;;7.00;2.88;;;;;;;9.08;100.00;101247.25;10440120;28;20123;-82
2023/01/07 05:04:23;;;;;;;5.05;2.35;;;;;;;9.03;100.00;101243.47;10429462;28;20041;-81
2023/01/07 05:09:24;;;;;;;6.63;2.50;;;;;;;9.03;100.00;101234.75;10476215;28;20119;-82
2023/01/07 05:14:24;;;;;;;7.50;2.80;;;;;;;9.05;100.00;101218.34;10406701;28;20048;-80
2023/01/07 05:19:25;;;;;;;4.78;1.98;;;;;;;9.11;100.00;101213.50;10452842;28;20037;-81
2023/01/07 05:24:25;;;;;;;6.82;2.05;;;;;;;9.19;100.00;101210.44;10445317;28;20033;-81
2023/01/07 05:29:26;;;;;;;3.88;1.60;;;;;;;9.19;100.00;101206.13;10448877;28;20550;-81
2023/01/07 05:34:26;;;;;;;5.50;2.15;;;;;;;9.19;100.00;101208.75;10439957;28;20175;-81
2023/01/07 05:39:27;;;;;;;4.53;1.58;;;;;;;9.22;100.00;101205.41;10450598;28;20039;-81
2023/01/07 05:44:27;;;;;;;7.13;3.95;;;;;;;9.20;100.00;101202.72;10475266;28;20083;-82
2023/01/07 05:49:28;;;;;;;3.33;1.88;;;;;;;9.20;100.00;101199.19;10485036;28;20040;-82
2023/01/07 05:54:28;;;;;;;3.53;1.15;;;;;;;9.32;100.00;101193.78;10467357;28;20041;-82
2023/01/07 05:59:29;;;;;;;3.63;1.30;;;;;;;9.23;100.00;101188.91;10423982;28;20158;-80
2023/01/07 06:04:29;;;;;;;3.45;1.27;;;;;;;9.22;100.00;101193.25;10440622;28;20382;-81
2023/01/07 06:09:30;;;;;;;3.33;0.90;;;;;;;9.14;100.00;101191.91;10435180;28;20095;-80
2023/01/07 06:14:31;;;;;;;2.22;1.20;;;;;;;9.04;100.00;101180.00;10422205;28;20517;-80
2023/01/07 06:19:31;;;;;;;1.85;1.13;;;;;;;9.08;100.00;101178.50;10449957;28;20045;-81
2023/01/07 06:24:32;;;;;;;4.25;2.08;;;;;;;9.07;100.00;101167.13;10465295;28;20113;-82
2023/01/07 06:29:32;;;;;;;2.78;2.38;;;;;;;9.11;100.00;101169.13;10444313;28;20086;-81
2023/01/07 06:34:33;;;;;;;5.22;1.80;;;;;;;9.11;100.00;101160.41;10445751;28;20064;-82
2023/01/07 06:39:33;;;;;;;2.13;1.00;;;;;;;9.01;100.00;101150.22;10434747;28;20112;-82
2023/01/07 06:44:34;;;;;;;2.97;1.15;;;;;;;8.98;100.00;101145.72;10432144;28;20038;-79
2023/01/07 06:49:34;;;;;;;1.63;1.00;;;;;;;8.96;100.00;101144.72;10432777;28;20569;-79
2023/01/07 06:54:35;;;;;;;3.70;1.10;;;;;;;8.87;100.00;101137.25;10438476;28;20037;-82
2023/01/07 06:59:35;;;;;;;1.33;0.63;;;;;;;8.91;100.00;101122.66;10471048;28;20398;-81
2023/01/07 07:04:36;;;;;;;3.28;1.17;;;;;;;8.84;100.00;101110.06;10425236;28;20052;-82
2023/01/07 07:09:37;;;;;;;1.42;0.85;;;;;;;8.77;100.00;101119.25;10450271;28;20061;-80
2023/01/07 07:14:38;;;;;;;3.55;1.17;;;;;;;8.84;100.00;101104.84;10407219;28;20038;-82
2023/01/07 07:19:38;;;;;;;3.10;1.60;;;;;;;8.88;100.00;101105.13;10463382;28;20037;-82
2023/01/07 07:24:39;;;;;;;1.65;0.63;;;;;;;8.91;100.00;101107.00;10445749;28;20071;-82
2023/01/07 07:29:40;;;;;;;1.50;0.90;;;;;;;8.94;100.00;101101.97;10462450;28;20071;-81
2023/01/07 07:34:40;;;;;;;1.60;0.98;;;;;;;8.96;100.00;101096.03;10446652;28;20033;-81
2023/01/07 07:39:41;;;;;;;1.98;1.15;;;;;;;9.02;100.00;101100.69;10446711;28;20519;-81
2023/01/07 07:44:41;;;;;;;3.30;0.90;;;;;;;9.00;100.00;101089.25;10452736;28;20036;-82
2023/01/07 07:49:42;;;;;;;1.83;1.00;;;;;;;8.98;100.00;101088.28;10438788;28;20131;-80
2023/01/07 07:54:42;;;;;;;3.17;1.50;;;;;;;8.99;100.00;101087.47;10463199;28;20049;-82
2023/01/07 07:59:43;;;;;;;2.40;1.40;;;;;;;9.00;100.00;101081.44;10486007;28;20033;-81
2023/01/07 08:04:44;;;;;;;2.25;1.10;;;;;;;8.99;100.00;101087.47;10453630;28;20179;-80
2023/01/07 08:09:44;;;;;;;1.02;0.77;;;;;;;8.96;100.00;101082.97;10446538;28;20030;-81
2023/01/07 08:14:45;;;;;;;1.45;1.00;;;;;;;8.94;100.00;101078.47;10477904;28;20404;-81
2023/01/07 08:19:45;;;;;;;3.15;0.98;;;;;;;9.00;100.00;101076.22;10445748;28;20041;-81
2023/01/07 08:24:46;;;;;;;1.55;1.08;;;;;;;9.15;100.00;101057.00;10441856;28;20044;-81
2023/01/07 08:29:47;;;;;;;2.72;0.90;;;;;;;9.24;100.00;101061.03;10445347;28;20068;-81
2023/01/07 08:34:47;;;;;;;3.00;1.17;;;;;;;9.25;100.00;101051.47;10402836;28;20042;-81
2023/01/07 08:39:48;;;;;;;1.50;1.00;;;;;;;9.24;100.00;101053.22;10410047;28;20033;-81
2023/01/07 08:44:49;;;;;;;1.77;1.08;;;;;;;9.24;100.00;101039.25;10475157;28;20128;-81
2023/01/07 08:49:49;;;;;;;3.17;1.02;;;;;;;9.23;100.00;101042.66;10475812;28;20044;-81
2023/01/07 08:54:50;;;;;;;2.75;1.50;;;;;;;9.25;100.00;101043.66;10457942;28;20077;-81
2023/01/07 08:59:50;;;;;;;1.50;0.75;;;;;;;9.32;100.00;101042.28;10404579;28;20053;-81
2023/01/07 09:04:51;;;;;;;1.02;0.73;;;;;;;9.35;100.00;101032.91;10419001;28;20049;-80
2023/01/07 09:09:51;;;;;;;2.88;0.90;;;;;;;9.35;100.00;101032.00;10402529;28;20490;-79
2023/01/07 09:14:52;;;;;;;1.88;1.13;;;;;;;9.38;100.00;101022.63;10399744;28;20052;-81
2023/01/07 09:19:53;;;;;;;1.23;0.80;;;;;;;9.52;100.00;101022.47;10366798;28;20041;-81
2023/01/07 09:24:53;;;;;;;3.35;0.85;;;;;;;9.64;100.00;101024.88;10385696;28;20136;-80
2023/01/07 09:29:57;;;;;;;3.25;0.88;;;;;;;9.82;100.00;101020.63;10398319;28;20041;-80
2023/01/07 09:34:57;;;;;;;2.95;1.27;;;;;;;9.91;100.00;101008.84;10364136;28;20040;-81
2023/01/07 09:39:59;;;;;;;2.08;0.85;;;;;;;10.04;100.00;100995.59;10374913;28;20044;-80
2023/01/07 09:45:09;;;;;;;;;;;;;;;10.30;100.00;100982.97;10399122;28;20030;-79
2023/01/07 09:50:15;;;;;;;2.47;0.90;;;;;;;10.27;100.00;100975.84;10400296;28;19925;-79
2023/01/07 09:55:18;;;;;;;2.65;1.00;;;;;;;10.52;100.00;100982.34;10395680;28;20072;-78
2023/01/07 10:00:21;;;;;;;4.45;1.00;;;;;;;10.98;100.00;100968.00;10398821;28;20036;-80
2023/01/07 10:05:30;;;;;;;2.38;1.00;;;;;;;12.28;100.00;100970.28;10440439;28;20401;-79
2023/01/07 10:11:03;;;;;;;3.38;1.10;;;;;;;13.48;100.00;100952.25;10435644;28;20447;-82
2023/01/07 10:16:14;;;;;;;2.50;1.73;;;;;;;13.32;99.45;100941.97;10443618;28;20036;-81
2023/01/07 10:21:26;;;;;;;8.30;1.48;;;;;;;13.01;100.00;100944.34;10438794;28;20041;-80
2023/01/07 10:26:27;;;;;;;2.22;0.80;;;;;;;12.73;94.07;100932.75;10470507;28;20039;-81
2023/01/07 10:31:27;;;;;;;3.95;2.15;;;;;;;12.53;97.43;100908.28;10440156;28;20043;-82
2023/01/07 10:36:37;;;;;;;1.73;0.68;;;;;;;12.67;94.84;100897.44;10451041;28;20373;-81
2023/01/07 10:42:05;;;;;;;2.40;1.20;;;;;;;13.00;93.93;100879.50;10431653;28;20060;-82
2023/01/07 10:47:09;;;;;;;1.60;0.80;;;;;;;12.68;92.99;100873.88;10475873;28;20099;-80
2023/01/07 10:52:22;;;;;;;1.58;0.80;;;;;;;12.58;90.75;100864.75;10437912;28;20107;-81
2023/01/07 10:57:23;;;;;;;2.42;1.00;;;;;;;12.37;91.61;100843.81;10438763;28;20068;-82
2023/01/07 11:02:27;;;;;;;2.23;1.00;;;;;;;12.96;87.52;100822.41;10438574;28;20117;-84
2023/01/07 11:07:29;;;;;;;1.05;0.57;;;;;;;12.96;84.21;100819.78;10421636;28;20037;-84
2023/01/07 11:12:44;;;;;;;;;;;;;;;12.38;81.43;100806.22;10438167;28;20482;-80
2023/01/07 11:17:55;;;;;;;1.50;0.73;;;;;;;12.47;84.40;100793.47;10436615;28;19928;-79
2023/01/07 11:22:56;;;;;;;1.97;1.17;;;;;;;12.96;78.86;100787.34;10395543;28;20038;-83
2023/01/07 11:27:58;;;;;;;1.10;0.65;;;;;;;13.33;75.20;100773.81;10413841;28;20121;-79
2023/01/07 11:33:02;;;;;;;1.67;0.65;;;;;;;13.36;73.26;100767.75;10404076;28;20120;-81
2023/01/07 11:38:03;;;;;;;3.75;1.30;;;;;;;12.57;76.99;100768.44;10450197;28;20032;-81
2023/01/07 11:43:16;;;;;;;2.05;1.05;;;;;;;12.67;79.84;100756.56;10464656;28;20417;-82
2023/01/07 11:48:19;;;;;;;2.95;0.98;;;;;;;13.09;76.75;100752.81;10461644;28;20110;-82
2023/01/07 11:53:26;;;;;;;2.05;1.00;;;;;;;13.16;77.07;100743.41;10456159;28;20075;-81
2023/01/07 11:58:35;;;;;;;2.20;1.00;;;;;;;12.79;76.74;100735.09;10487880;28;20093;-81
2023/01/07 12:03:38;;;;;;;2.35;1.08;;;;;;;13.08;76.16;100719.50;10448691;28;20044;-81
2023/01/07 12:08:48;;;;;;;1.65;1.10;;;;;;;12.98;77.81;100699.91;10384236;28;20059;-81
2023/01/07 12:13:51;;;;;;;3.38;1.98;;;;;;;12.52;79.49;100704.38;10421553;28;20056;-82
2023/01/07 12:18:57;;;;;;;3.80;1.77;;;;;;;11.99;84.88;100698.84;10388222;28;20123;-85
2023/01/07 12:24:10;;;;;;;2.50;1.85;;;;;;;11.67;88.28;100685.34;10440324;28;20045;-81
2023/01/07 12:29:10;;;;;;;;;;;;;;;11.57;90.83;100684.97;10446159;28;20523;-79
2023/01/07 12:34:41;;;;;;;4.38;2.78;;;;;;;12.24;90.25;100666.59;10464373;28;19920;-81
2023/01/07 12:39:43;;;;;;;4.88;1.92;;;;;;;12.60;84.27;100657.41;10416875;28;20079;-81
2023/01/07 12:44:56;;;;;;;3.50;2.40;;;;;;;12.50;83.88;100650.91;10462437;28;20032;-79
2023/01/07 12:50:12;;;;;;;4.18;2.28;;;;;;;13.08;78.92;100640.66;10404008;28;20099;-79
2023/01/07 12:55:20;;;;;;;4.75;2.45;;;;;;;12.76;80.93;100640.47;10375988;28;20040;-82
2023/01/07 13:00:24;;;;;;;4.50;2.13;;;;;;;12.87;78.25;100617.22;10445341;28;20036;-83
2023/01/07 13:05:36;;;;;;;4.65;2.22;;;;;;;13.25;76.35;100606.19;10439234;28;20040;-80
2023/01/07 13:11:04;;;;;;;4.15;2.33;;;;;;;13.35;75.35;100605.63;10436679;28;20420;-80
2023/01/07 13:16:08;;;;;;;4.03;2.05;;;;;;;13.24;76.07;100600.03;10417938;28;20062;-79
2023/01/07 13:21:13;;;;;;;3.53;1.80;;;;;;;12.94;76.96;100603.44;10435887;28;20028;-79
2023/01/07 13:26:35;;;;;;;2.15;1.52;;;;;;;12.90;77.04;100581.41;10440473;28;20041;-81
2023/01/07 13:31:39;;;;;;;8.32;1.90;;;;;;;12.42;81.28;100587.66;10441434;28;20481;-79
2023/01/07 13:36:43;;;;;;;3.50;1.60;;;;;;;12.23;84.01;100575.59;10457375;28;20123;-80
2023/01/07 13:42:21;;;;;;;4.32;2.25;;;;;;;11.65;89.43;100574.31;10440169;28;20064;-79
2023/01/07 13:47:23;;;;;;;3.30;1.88;;;;;;;11.27;92.89;100572.84;10396774;28;20119;-77
2023/01/07 13:52:25;;;;;;;;;;;;;;;11.63;90.20;100558.50;10420170;28;20463;-78
2023/01/07 13:57:26;;;;;;;2.53;1.40;;;;;;;12.01;88.90;100553.84;10442858;28;19936;-79
2023/01/07 14:02:28;;;;;;;2.22;1.13;;;;;;;11.96;88.84;100557.97;10441779;28;20033;-78
2023/01/07 14:07:28;;;;;;;3.10;1.42;;;;;;;12.01;87.37;100539.84;10421120;28;20100;-79
2023/01/07 14:12:52;;;;;;;2.05;1.30;;;;;;;11.96;87.72;100536.13;10438575;28;20084;-79
2023/01/07 14:18:31;;;;;;;3.60;2.13;;;;;;;11.22;93.17;100528.94;10425206;28;20485;-80
2023/01/07 14:23:36;;;;;;;3.70;1.60;;;;;;;10.65;98.12;100523.22;10385168;28;20489;-79
2023/01/07 14:29:18;;;;;;;2.80;1.45;;;;;;;10.32;100.00;100517.38;10453742;28;20511;-83
2023/01/07 14:34:23;;;;;;;2.65;1.33;;;;;;;10.05;100.00;100517.97;10379486;28;20041;-81
2023/01/07 14:39:34;;;;;;;2.53;1.50;;;;;;;9.90;100.00;100516.47;10363577;28;20041;-80
2023/01/07 14:44:34;;;;;;;3.53;2.00;;;;;;;9.72;100.00;100526.09;10380657;28;20045;-80
2023/01/07 14:50:15;;;;;;;3.08;1.48;;;;;;;9.58;100.00;100517.63;10405777;28;20064;-80
2023/01/07 14:55:40;;;;;;;4.90;1.42;;;;;;;9.47;100.00;100494.53;10398289;28;20041;-80
2023/01/07 15:00:49;;;;;;;3.20;1.23;;;;;;;9.23;100.00;100475.97;10429548;28;20033;-80
2023/01/07 15:06:24;;;;;;;3.08;1.33;;;;;;;9.17;100.00;100467.88;10464319;28;20615;-79
2023/01/07 15:16:45;;;;;;;3.35;1.98;;;;;;;8.96;100.00;100464.31;10394555;28;20045;-79
2023/01/07 15:22:06;;;;;;;4.07;1.85;;;;;;;8.82;100.00;100465.38;10445447;28;20041;-81
2023/01/07 15:27:12;;;;;;;4.65;1.60;;;;;;;8.70;100.00;100472.63;10455712;28;20531;-82
2023/01/07 15:32:30;;;;;;;1.98;1.23;;;;;;;8.53;100.00;100459.63;10460971;28;20551;-81
2023/01/07 15:37:31;;;;;;;3.50;1.75;;;;;;;8.41;100.00;100464.22;10480510;28;20398;-81
2023/01/07 15:42:32;;;;;;;5.97;1.58;;;;;;;8.42;100.00;100464.28;10478121;28;20112;-81
2023/01/07 15:47:35;;;;;;;11.80;1.80;;;;;;;8.39;100.00;100453.69;10435780;28;20123;-81
2023/01/07 15:52:36;;;;;;;3.63;1.45;;;;;;;8.37;100.00;100439.69;10471167;28;20124;-81
2023/01/07 15:57:36;;;;;;;3.33;1.65;;;;;;;8.36;100.00;100430.06;10442829;28;20408;-81
2023/01/07 16:02:37;;;;;;;3.20;1.63;;;;;;;8.44;100.00;100428.72;10429647;28;20037;-81
2023/01/07 16:07:47;;;;;;;3.72;1.73;;;;;;;8.31;100.00;100418.50;10452076;28;20114;-81
2023/01/07 16:12:49;;;;;;;2.95;1.77;;;;;;;8.31;100.00;100411.59;10429027;28;20060;-80
2023/01/07 16:18:00;;;;;;;2.55;1.40;;;;;;;8.29;100.00;100407.09;10424807;28;20052;-79
2023/01/07 16:23:07;;;;;;;4.78;1.70;;;;;;;8.36;100.00;100402.28;10430959;28;20048;-80
2023/01/07 16:28:13;;;;;;;2.92;2.20;;;;;;;8.31;100.00;100413.28;10446983;28;20049;-79
2023/01/07 16:33:15;;;;;;;9.95;5.72;;;;;;;8.42;100.00;100411.22;10438511;28;20045;-80
2023/01/07 16:38:17;;;;;;;6.63;3.45;;;;;;;8.44;100.00;100402.66;10428344;28;20045;-81
2023/01/07 16:43:35;;;;;;;6.82;3.17;;;;;;;8.55;100.00;100403.22;10415482;28;20045;-81
2023/01/07 16:48:36;;;;;;;3.90;2.03;;;;;;;8.61;100.00;100411.34;10425283;28;20489;-80
2023/01/07 16:53:36;;;;;;;3.38;1.60;;;;;;;8.72;100.00;100404.00;10420852;28;20171;-79
2023/01/07 16:58:41;;;;;;;4.28;2.08;;;;;;;8.82;100.00;100398.41;10395057;28;20399;-79
2023/01/07 17:03:43;;;;;;;3.67;1.92;;;;;;;8.92;100.00;100404.06;10405625;28;20041;-80
2023/01/07 17:08:48;;;;;;;4.43;2.13;;;;;;;9.04;100.00;100393.31;10430235;28;20550;-79
2023/01/07 17:13:48;;;;;;;2.95;1.98;;;;;;;9.16;100.00;100398.19;10402146;28;20140;-80
2023/01/07 17:18:49;;;;;;;4.10;1.95;;;;;;;9.21;100.00;100384.53;10410678;28;20050;-80
2023/01/07 17:23:50;;;;;;;4.18;2.10;;;;;;;9.24;100.00;100379.44;10399035;28;20106;-79
2023/01/07 17:28:55;;;;;;;3.08;1.95;;;;;;;9.28;100.00;100370.03;10371723;28;20124;-82
2023/01/07 17:34:02;;;;;;;3.45;1.92;;;;;;;9.26;100.00;100361.22;10407529;28;21025;-81
2023/01/07 17:39:03;;;;;;;4.50;2.67;;;;;;;9.07;100.00;100351.69;10415017;28;20061;-80
2023/01/07 17:44:04;;;;;;;4.65;2.45;;;;;;;8.87;100.00;100346.44;10432845;28;20481;-80
2023/01/07 17:49:05;;;;;;;3.57;2.40;;;;;;;8.99;100.00;100337.41;10435094;28;20459;-80
2023/01/07 17:54:05;;;;;;;4.85;2.03;;;;;;;9.01;100.00;100349.69;10413019;28;20274;-81
2023/01/07 17:59:12;;;;;;;4.65;2.63;;;;;;;8.85;100.00;100345.47;10415672;28;20136;-81
2023/01/07 18:04:12;;;;;;;5.80;2.25;;;;;;;8.69;100.00;100328.22;10369072;28;20050;-81
2023/01/07 18:09:13;;;;;;;5.93;2.70;;;;;;;8.63;100.00;100315.78;10388982;28;20133;-81
2023/01/07 18:14:15;;;;;;;5.05;2.53;;;;;;;8.50;100.00;100322.13;10373445;28;20037;-80
2023/01/07 18:19:16;;;;;;;4.22;2.33;;;;;;;8.62;100.00;100328.75;10371389;28;20108;-81
2023/01/07 18:24:18;;;;;;;7.03;2.85;;;;;;;8.66;100.00;100328.06;10385048;28;20164;-83
2023/01/07 18:29:19;;;;;;;6.45;3.58;;;;;;;8.70;100.00;100322.16;10396716;28;20036;-81
2023/01/07 18:34:19;;;;;;;4.53;2.00;;;;;;;8.72;100.00;100301.38;10399898;28;20057;-82
2023/01/07 18:39:20;;;;;;;5.28;2.15;;;;;;;8.82;100.00;100308.81;10403824;28;20048;-82
2023/01/07 18:44:21;;;;;;;3.92;2.47;;;;;;;8.85;100.00;100323.69;10371143;28;20095;-82
2023/01/07 18:49:22;;;;;;;4.10;1.57;;;;;;;8.84;100.00;100315.00;10382449;28;20042;-81
2023/01/07 18:54:22;;;;;;;4.40;2.20;;;;;;;8.92;100.00;100318.84;10391375;28;20401;-81
2023/01/07 18:59:23;;;;;;;4.30;2.67;;;;;;;8.91;100.00;100321.38;10394815;28;20294;-81
2023/01/07 19:04:24;;;;;;;5.20;1.63;;;;;;;8.90;100.00;100337.84;10393260;28;20046;-80
2023/01/07 19:09:24;;;;;;;5.20;1.92;;;;;;;9.04;100.00;100328.06;10387553;28;20502;-81
2023/01/07 19:14:25;;;;;;;4.38;1.75;;;;;;;9.15;100.00;100323.31;10376897;28;20064;-82
2023/01/07 19:19:26;;;;;;;4.25;2.45;;;;;;;9.22;100.00;100322.75;10377315;28;20033;-81
2023/01/07 19:24:26;;;;;;;5.07;1.70;;;;;;;9.29;100.00;100321.31;10378854;28;20048;-82
2023/01/07 19:29:27;;;;;;;2.63;1.33;;;;;;;9.45;100.00;100307.19;10375286;28;20046;-79
2023/01/07 19:34:28;;;;;;;11.93;2.33;;;;;;;9.42;100.00;100302.75;10400305;28;20421;-81
2023/01/07 19:39:28;;;;;;;5.25;2.05;;;;;;;9.40;100.00;100318.34;10381239;28;20121;-81
2023/01/07 19:44:29;;;;;;;2.38;1.90;;;;;;;9.38;100.00;100327.81;10439652;28;20480;-80
2023/01/07 19:49:29;;;;;;;3.67;1.63;;;;;;;9.37;100.00;100318.19;10389218;28;20041;-81
2023/01/07 19:54:30;;;;;;;4.38;2.38;;;;;;;9.02;100.00;100327.97;10385997;28;20043;-79
2023/01/07 19:59:32;;;;;;;3.92;1.55;;;;;;;8.74;100.00;100318.00;10408917;28;20417;-80
2023/01/07 20:04:33;;;;;;;;;;;;;;;8.41;100.00;100331.22;10438826;28;20439;-81
2023/01/07 20:09:33;;;;;;;4.55;2.10;;;;;;;8.17;100.00;100326.59;10445284;28;19925;-80
2023/01/07 20:14:34;;;;;;;3.15;1.85;;;;;;;8.13;100.00;100322.06;10466242;28;20037;-80
2023/01/07 20:19:34;;;;;;;3.08;1.55;;;;;;;8.02;100.00;100324.13;10438760;28;20055;-81
2023/01/07 20:24:35;;;;;;;3.95;1.77;;;;;;;8.01;100.00;100330.16;10453312;28;20069;-80
2023/01/07 20:29:37;;;;;;;2.88;1.95;;;;;;;8.06;100.00;100333.88;10441334;28;20520;-80
2023/01/07 20:34:38;;;;;;;2.97;1.42;;;;;;;8.07;100.00;100326.16;10440801;28;20043;-79
2023/01/07 20:39:41;;;;;;;3.08;1.77;;;;;;;8.13;100.00;100315.13;10440644;28;20121;-79
2023/01/07 20:44:42;;;;;;;5.35;2.60;;;;;;;8.23;100.00;100321.69;10439555;28;20127;-79
2023/01/07 20:49:42;;;;;;;3.75;2.13;;;;;;;8.29;100.00;100316.75;10423716;28;20051;-80
2023/01/07 20:54:43;;;;;;;13.30;2.05;;;;;;;8.35;100.00;100293.59;10439583;28;20056;-81
2023/01/07 20:59:44;;;;;;;4.65;3.05;;;;;;;8.41;100.00;100285.16;10437908;28;20049;-79
2023/01/07 21:04:45;;;;;;;4.88;2.30;;;;;;;8.52;100.00;100299.63;10446793;28;20044;-80
2023/01/07 21:09:45;;;;;;;4.20;1.70;;;;;;;8.58;100.00;100300.72;10435986;28;20045;-79
2023/01/07 21:14:46;;;;;;;2.50;1.70;;;;;;;8.70;100.00;100293.47;10439126;28;20082;-79
2023/01/07 21:19:47;;;;;;;3.72;1.73;;;;;;;8.72;100.00;100297.03;10440454;28;20044;-79
2023/01/07 21:24:47;;;;;;;3.00;1.50;;;;;;;8.78;100.00;100289.50;10437002;28;20041;-80
2023/01/07 21:29:49;;;;;;;2.92;1.50;;;;;;;8.74;100.00;100291.91;10444063;28;20044;-84
2023/01/07 21:34:50;;;;;;;6.28;4.15;;;;;;;8.81;100.00;100287.03;10438500;28;20075;-80
2023/01/07 21:39:50;;;;;;;3.17;1.55;;;;;;;8.81;100.00;100293.97;10422793;28;20072;-80
2023/01/07 21:44:51;;;;;;;4.68;2.35;;;;;;;8.81;100.00;100286.16;10450859;28;20397;-82
2023/01/07 21:49:52;;;;;;;4.13;1.80;;;;;;;8.80;100.00;100277.41;10384170;28;20049;-81
2023/01/07 21:54:54;;;;;;;3.83;1.77;;;;;;;8.84;100.00;100269.72;10393095;28;20064;-80
2023/01/07 21:59:55;;;;;;;3.88;1.60;;;;;;;8.87;100.00;100267.25;10393257;28;20034;-81
2023/01/07 22:04:56;;;;;;;3.75;1.95;;;;;;;8.86;100.00;100273.28;10399766;28;20103;-81
2023/01/07 22:09:56;;;;;;;3.45;1.42;;;;;;;8.86;100.00;100273.28;10398093;28;20044;-80
2023/01/07 22:14:57;;;;;;;2.92;1.80;;;;;;;8.86;100.00;100273.28;10401576;28;20480;-80
2023/01/07 22:19:57;;;;;;;7.10;2.30;;;;;;;8.84;100.00;100282.78;10395922;28;20045;-80
2023/01/07 22:24:58;;;;;;;5.35;1.95;;;;;;;8.74;100.00;100281.47;10373623;28;20045;-80
2023/01/07 22:29:59;;;;;;;3.55;2.33;;;;;;;8.60;100.00;100281.72;10410432;28;20047;-80
2023/01/07 22:34:59;;;;;;;3.58;2.42;;;;;;;8.50;100.00;100276.91;10394635;28;20034;-80
2023/01/07 22:40:01;;;;;;;4.05;2.13;;;;;;;8.41;100.00;100271.22;10371851;28;20128;-81
2023/01/07 22:45:10;;;;;;;3.92;2.63;;;;;;;8.37;100.00;100284.13;10385870;28;20037;-80
2023/01/07 22:50:13;;;;;;;2.47;1.58;;;;;;;8.43;100.00;100261.78;10386910;28;20045;-81
2023/01/07 22:55:13;;;;;;;3.90;2.13;;;;;;;8.43;100.00;100252.22;10419256;28;20037;-80
2023/01/07 23:00:38;;;;;;;4.60;1.85;;;;;;;8.50;100.00;100262.13;10440846;28;20132;-81
2023/01/07 23:05:39;;;;;;;4.72;2.03;;;;;;;8.55;100.00;100264.97;10435056;28;20049;-80
2023/01/07 23:10:41;;;;;;;3.97;2.03;;;;;;;8.62;100.00;100255.69;10428980;28;20057;-80
2023/01/07 23:15:41;;;;;;;3.92;1.88;;;;;;;8.66;100.00;100260.22;10416288;28;20041;-80
2023/01/07 23:20:42;;;;;;;4.65;2.40;;;;;;;8.64;100.00;100259.28;10471823;28;20033;-79